^^
Datos históricos de la estación: Murcia-Puente Tocinos
Diario Informe para Agosto 11, 2022 Unidades:  Ingés    Métrico   Ambas
Diario Semanal Mensual Anual
  Máxima: Mínima: Promedio:
Temperatura: 92.8 °F 75.7 °F 84 °F
Punto de rocio: 73.4 °F 58.8 °F 66.9 °F
Humedad: 78.9% 33.1% 58%
Velocidad viento: 10mph 0mph 5.2mph
Racha viento: 21.3mph - -
Viento- - ESE
Presión: 30 in 29.9 in -
Precipitación: 0 in    
 
 
Tabla de datos para Agosto 11, 2022
Hora Temperatura Punto de rocio Presión Viento Velocidad viento Racha viento Humedad Intensidad lluvia(por hora) Nubes
00:04 81.3 °F 73 °F 29.9 in Este 1.6 mph 3.5 mph 76% 0 in
00:09 81.1 °F 72.9 °F 29.9 in ENE 1.4 mph 4.6 mph 76% 0 in
00:14 81.1 °F 72.9 °F 29.9 in NE 1.7 mph 3.5 mph 76% 0 in
00:19 81.1 °F 72.9 °F 29.9 in NNO 1.8 mph 3.6 mph 76% 0 in
00:24 81.1 °F 72.9 °F 29.9 in Oeste 1.5 mph 2.9 mph 76% 0 in
00:29 81.1 °F 72.9 °F 29.9 in Oeste 1.4 mph 2.4 mph 76% 0 in
00:34 81 °F 72.9 °F 29.9 in Oeste 0.4 mph   76% 0 in
00:39 81 °F 72.7 °F 29.9 in Calm     76% 0 in
00:44 81 °F 72.7 °F 29.9 in Calm   4.6 mph 76% 0 in
00:49 81 °F 72.7 °F 29.9 in Calm   4.6 mph 76% 0 in
00:54 80.8 °F 72.5 °F 29.9 in Oeste 2.1 mph 4.6 mph 76% 0 in
00:59 80.8 °F 72.5 °F 29.9 in Oeste 2.9 mph 2.9 mph 76% 0 in
01:04 81 °F 72.7 °F 29.9 in Oeste 2.1 mph   76% 0 in
01:09 81 °F 72.7 °F 29.9 in Oeste 1.8 mph   76% 0 in
01:14 81 °F 72.7 °F 29.9 in Oeste 0.6 mph   76% 0 in
01:19 81 °F 72.7 °F 29.9 in Calm     76% 0 in
01:24 81 °F 72.7 °F 29.9 in Calm     76% 0 in
01:29 81 °F 72.7 °F 29.9 in Calm     76% 0 in
01:34 81 °F 72.7 °F 29.9 in Calm     76% 0 in
01:39 81 °F 72.7 °F 29.9 in Calm     75.9% 0 in
01:44 80.8 °F 72.5 °F 30 in Calm   2.4 mph 76% 0 in
01:49 80.6 °F 72.3 °F 30 in Calm   2.9 mph 76% 0 in
01:54 80.6 °F 72.3 °F 30 in Oeste 1 mph 2.3 mph 76% 0 in
01:59 80.4 °F 72.1 °F 30 in Oeste 1.4 mph   76% 0 in
02:04 80.2 °F 72.1 °F 29.9 in Oeste 0.3 mph   76% 0 in
02:09 80.2 °F 71.8 °F 29.9 in Calm   3.6 mph 75.5% 0 in
02:14 79.9 °F 71.2 °F 29.9 in North 1.2 mph 3.6 mph 75% 0 in
02:19 79.3 °F 70.9 °F 29.9 in NO 1.8 mph 4.6 mph 75.3% 0 in
02:24 79.2 °F 71.1 °F 29.9 in NO 1.9 mph 3.6 mph 76% 0 in
02:29 79.2 °F 70.9 °F 29.9 in NO 2 mph 2.9 mph 76% 0 in
02:34 79.2 °F 70.9 °F 29.9 in NO 1.6 mph 2.3 mph 76% 0 in
02:39 79.2 °F 70.9 °F 29.9 in NO 1.4 mph   76% 0 in
02:44 79 °F 70.9 °F 29.9 in NO 0.4 mph   76% 0 in
02:49 79 °F 70.7 °F 29.9 in Calm   4.6 mph 76% 0 in
02:54 78.8 °F 70.7 °F 29.9 in OSO 1 mph 4.3 mph 76% 0 in
02:59 79 °F 71.2 °F 29.9 in SE 1.4 mph 4.6 mph 77.2% 0 in
03:04 79 °F 71.4 °F 29.9 in SE 1.9 mph 2.4 mph 77.5% 0 in
03:09 79 °F 71.4 °F 29.9 in ESE 2 mph   77.6% 0 in
03:14 78.8 °F 71.4 °F 29.9 in ESE 0.6 mph   78% 0 in
03:19 78.6 °F 71.4 °F 29.9 in Calm     78.2% 0 in
03:24 78.6 °F 71.2 °F 29.9 in Calm     78.3% 0 in
03:29 78.6 °F 71.6 °F 29.9 in Calm   4.6 mph 78.9% 0 in
03:34 78.6 °F 71.4 °F 29.9 in ESE 1 mph 4 mph 78.5% 0 in
03:39 78.6 °F 71.1 °F 29.9 in SSE 1.4 mph 4.7 mph 78% 0 in
03:44 78.4 °F 70.9 °F 29.9 in SSE 2.4 mph 5.2 mph 77.9% 0 in
03:49 78.4 °F 70.5 °F 29.9 in Sur 2.9 mph 5.9 mph 77% 0 in
03:54 78.3 °F 70.2 °F 29.9 in SSE 3.4 mph 5.8 mph 76.4% 0 in
03:59 78.3 °F 69.8 °F 29.9 in Sur 3.6 mph 5.8 mph 75.5% 0 in
04:04 78.1 °F 69.4 °F 29.9 in Sur 3.9 mph 5.8 mph 75% 0 in
04:09 78.1 °F 69.4 °F 29.9 in SSO 4 mph 5.9 mph 74.9% 0 in
04:14 78.1 °F 69.1 °F 29.9 in SSO 4 mph 6.2 mph 74% 0 in
04:19 78.1 °F 68.5 °F 29.9 in SSO 4 mph 6.9 mph 73.1% 0 in
04:24 77.7 °F 68.2 °F 29.9 in SSO 4.5 mph 7.4 mph 72.4% 0 in
04:29 77.5 °F 67.8 °F 29.9 in SSO 4.7 mph 6.9 mph 72% 0 in
04:34 77.5 °F 67.8 °F 29.9 in SSO 5 mph 7.4 mph 72% 0 in
04:39 77.5 °F 68 °F 29.9 in SO 5.2 mph 6.9 mph 72.6% 0 in
04:44 77.7 °F 68.4 °F 29.9 in SO 4.3 mph 6.2 mph 73% 0 in
04:49 77.5 °F 68.4 °F 29.9 in SO 4 mph 7.4 mph 73% 0 in
04:54 77.5 °F 68.2 °F 29.9 in SO 4.2 mph 8.1 mph 73% 0 in
04:59 77.5 °F 67.8 °F 29.9 in SO 4.3 mph 6.4 mph 72.2% 0 in
05:04 77.4 °F 67.6 °F 29.9 in SO 4.3 mph 8.5 mph 72% 0 in
05:09 77.4 °F 67.5 °F 29.9 in SO 4.3 mph 8.1 mph 71.7% 0 in
05:14 77.4 °F 67.1 °F 29.9 in SO 4.6 mph 7.4 mph 71% 0 in
05:19 77.2 °F 66.7 °F 29.9 in SO 4.7 mph 8.5 mph 70.5% 0 in
05:24 77.2 °F 66.4 °F 29.9 in SO 4.7 mph 8.1 mph 69.7% 0 in
05:29 77 °F 66 °F 29.9 in SO 4.7 mph 5.9 mph 69% 0 in
05:34 77 °F 66 °F 29.9 in SSO 3.9 mph 4.6 mph 69% 0 in
05:39 76.8 °F 65.8 °F 29.9 in SSO 3.6 mph 5.9 mph 69% 0 in
05:44 76.8 °F 65.8 °F 29.9 in SO 3.6 mph 6.2 mph 69% 0 in
05:49 76.6 °F 65.5 °F 29.9 in SO 3.6 mph 6.2 mph 68.4% 0 in
05:54 76.6 °F 65.3 °F 29.9 in SO 3.6 mph 5.8 mph 68% 0 in
05:59 76.6 °F 64.9 °F 29.9 in SO 3.6 mph 5.2 mph 67% 0 in
06:04 76.6 °F 64.9 °F 29.9 in SO 3 mph 5.9 mph 67% 0 in
06:09 76.6 °F 64.9 °F 29.9 in SO 2.9 mph 5.8 mph 67% 0 in
06:14 76.6 °F 64.6 °F 29.9 in SSO 3.4 mph 4.7 mph 66.5% 0 in
06:19 76.6 °F 64.4 °F 29.9 in SSO 3.6 mph 6.2 mph 66% 0 in
06:24 76.6 °F 64.4 °F 29.9 in SSO 3.6 mph 5.9 mph 66% 0 in
06:29 76.5 °F 64.4 °F 29.9 in SSO 3.6 mph 6.9 mph 66% 0 in
06:34 76.5 °F 64 °F 29.9 in SSO 4.1 mph 7.4 mph 65.5% 0 in
06:39 76.3 °F 63.7 °F 29.9 in SSO 4.3 mph 8.5 mph 65% 0 in
06:44 76.3 °F 63.7 °F 29.9 in SSO 4.9 mph 5.8 mph 65% 0 in
06:49 76.3 °F 63.7 °F 29.9 in SSO 5.2 mph 8.1 mph 65% 0 in
06:54 75.9 °F 63.3 °F 29.9 in SSO 4.8 mph 8.1 mph 65% 0 in
06:59 75.9 °F 63.3 °F 29.9 in Sur 4.7 mph 6.9 mph 65% 0 in
07:04 75.9 °F 63.7 °F 29.9 in SSO 4.7 mph 8.1 mph 65.9% 0 in
07:09 75.7 °F 63.1 °F 29.9 in SSO 4.7 mph 8.7 mph 65.2% 0 in
07:14 75.7 °F 62.8 °F 29.9 in SSO 5.2 mph 9.2 mph 64.1% 0 in
07:19 75.7 °F 62.6 °F 29.9 in SSO 5.4 mph 7.4 mph 63.7% 0 in
07:24 75.7 °F 62.2 °F 29.9 in SSO 4.9 mph 7.4 mph 63% 0 in
07:29 75.7 °F 62.2 °F 29.9 in SSO 4.7 mph 6.9 mph 62.9% 0 in
07:34 75.7 °F 61.9 °F 29.9 in SSO 4.4 mph 7.6 mph 62% 0 in
07:39 75.7 °F 61.9 °F 29.9 in SSO 4.3 mph 8.1 mph 62% 0 in
07:44 75.7 °F 61.9 °F 29.9 in SSO 4.3 mph 6.4 mph 62% 0 in
07:49 75.9 °F 62.1 °F 29.9 in SSO 4.3 mph 6.9 mph 62% 0 in
07:54 75.9 °F 62.1 °F 29.9 in SSO 4.3 mph 6.2 mph 62% 0 in
07:59 75.9 °F 62.1 °F 29.9 in SSO 4.3 mph 5.9 mph 62% 0 in
08:04 75.9 °F 62.1 °F 29.9 in SSO 4.3 mph 8.1 mph 62% 0 in
08:09 75.9 °F 61.7 °F 29.9 in SSO 4.3 mph 8.1 mph 61.5% 0 in
08:14 75.9 °F 61.5 °F 29.9 in SSO 5.1 mph 8.1 mph 61% 0 in
08:19 75.9 °F 61.5 °F 29.9 in SSO 5.4 mph 6.9 mph 61% 0 in
08:24 76.3 °F 61.9 °F 29.9 in SSO 4.9 mph 7.4 mph 61% 0 in
08:29 76.5 °F 61.9 °F 29.9 in SSO 4.7 mph 7.4 mph 61% 0 in
08:34 76.6 °F 61.7 °F 29.9 in SO 4.4 mph 7.4 mph 60.3% 0 in
08:39 76.6 °F 61.3 °F 29.9 in SO 4.3 mph 6.9 mph 59.1% 0 in
08:44 77 °F 61.5 °F 29.9 in SO 4.3 mph 6.9 mph 59% 0 in
08:49 77.4 °F 61.7 °F 29.9 in SO 4.3 mph 6.9 mph 59% 0 in
08:54 77.4 °F 61.5 °F 29.9 in SSO 4.1 mph 6.9 mph 58.3% 0 in
08:59 77.4 °F 61.5 °F 29.9 in SSO 4 mph 6.9 mph 58.2% 0 in
09:04 77.5 °F 61.7 °F 29.9 in SSO 4.2 mph 8.1 mph 58% 0 in
09:09 77.9 °F 61.9 °F 29.9 in SSO 4.3 mph 9.7 mph 57.9% 0 in
09:14 77.9 °F 61.9 °F 29.9 in SSO 5.1 mph 8.1 mph 57.8% 0 in
09:19 77.9 °F 61.7 °F 29.9 in SSO 5.4 mph 8.5 mph 57.3% 0 in
09:24 78.1 °F 61.5 °F 29.9 in SO 5.3 mph 6.9 mph 57% 0 in
09:29 78.3 °F 61 °F 29.9 in SO 5.2 mph 9.2 mph 55.7% 0 in
09:34 78.4 °F 61 °F 29.9 in SO 4.8 mph 8.5 mph 55.1% 0 in
09:39 78.8 °F 61 °F 29.9 in SO 4.7 mph 8.1 mph 54.6% 0 in
09:44 79.2 °F 61 °F 29.9 in SSO 4.4 mph 8.5 mph 53.8% 0 in
09:49 79.3 °F 60.8 °F 29.9 in SO 4.3 mph 8.1 mph 53.3% 0 in
09:54 79.5 °F 60.8 °F 29.9 in SSO 4.9 mph 7.4 mph 53% 0 in
09:59 79.9 °F 61.2 °F 29.9 in SO 5.2 mph 8.1 mph 53% 0 in
10:04 79.9 °F 61.2 °F 29.9 in SO 4.8 mph 8.1 mph 53% 0 in
10:09 80.1 °F 61.3 °F 29.9 in SO 4.7 mph 6.9 mph 52.9% 0 in
10:14 80.2 °F 61.3 °F 29.9 in SSO 3.9 mph 6.9 mph 52.3% 0 in
10:19 80.8 °F 61.3 °F 29.9 in SO 3.6 mph 6.2 mph 52% 0 in
10:24 81.1 °F 61.7 °F 29.9 in SSO 3.2 mph 6.9 mph 51.8% 0 in
10:29 81.5 °F 61.7 °F 29.9 in SO 3.1 mph 6.9 mph 51% 0 in
10:34 81.7 °F 61.9 °F 29.9 in SO 3.8 mph 5.2 mph 51% 0 in
10:39 82 °F 61.9 °F 29.9 in SSO 4 mph 6.9 mph 50.5% 0 in
10:44 82.8 °F 62.1 °F 29.9 in SSO 3.7 mph 6.9 mph 50% 0 in
10:49 83.1 °F 62.2 °F 29.9 in SSO 3.6 mph 4.7 mph 49.7% 0 in
10:54 83.7 °F 62.2 °F 29.9 in OSO 3.2 mph 5.2 mph 48.6% 0 in
10:59 84.2 °F 62.6 °F 29.9 in NNO 3.1 mph 4.7 mph 48.3% 0 in
11:04 85.1 °F 63.5 °F 29.9 in NE 2.3 mph 3.6 mph 48.5% 0 in
11:09 85.6 °F 63.7 °F 29.9 in North 2 mph 4.6 mph 48% 0 in
11:14 86.4 °F 64 °F 29.9 in NNE 2.3 mph 4.7 mph 47.4% 0 in
11:19 87.3 °F 64.6 °F 29.9 in NNE 2.4 mph 4.6 mph 47.2% 0 in
11:24 88 °F 65.5 °F 29.9 in NE 2.1 mph 4.6 mph 47.3% 0 in
11:29 88.3 °F 65.3 °F 29.9 in NE 2 mph 9.2 mph 46.7% 0 in
11:34 87.8 °F 65.5 °F 29.9 in NE 3.2 mph 9.2 mph 47.6% 0 in
11:39 87.6 °F 65.5 °F 29.9 in NE 3.6 mph 12.7 mph 48.1% 0 in
11:44 87.6 °F 65.5 °F 29.9 in NNE 3.2 mph 8.1 mph 48% 0 in
11:49 87.4 °F 65.7 °F 29.9 in NNE 3.1 mph 10.4 mph 48.4% 0 in
11:54 87.3 °F 65.8 °F 29.9 in NE 4.7 mph 12.5 mph 49% 0 in
11:59 87.4 °F 65.8 °F 29.9 in NE 5.4 mph 12.7 mph 48.9% 0 in
12:04 87.4 °F 65.8 °F 29.9 in NE 5.2 mph 8.1 mph 48.9% 0 in
12:09 88 °F 66 °F 29.9 in NE 5.2 mph 9.7 mph 48.4% 0 in
12:14 88.3 °F 66.2 °F 29.9 in ENE 4.8 mph 9.2 mph 48% 0 in
12:19 88.7 °F 66.6 °F 29.9 in NE 4.7 mph 11.8 mph 48.1% 0 in
12:24 89.1 °F 66.4 °F 29.9 in ENE 5 mph 9.2 mph 47% 0 in
12:29 89.2 °F 66.4 °F 29.9 in NE 5.2 mph 13.8 mph 46.8% 0 in
12:34 89.6 °F 66.2 °F 29.9 in NE 6.7 mph 15 mph 46.2% 0 in
12:39 90 °F 66.7 °F 29.9 in ENE 7.4 mph 12.7 mph 46.7% 0 in
12:44 90.1 °F 66.4 °F 29.9 in ENE 7.4 mph 15 mph 45.5% 0 in
12:49 90.1 °F 67.3 °F 29.9 in NNE 7.4 mph 16.3 mph 47% 0 in
12:54 90 °F 66.6 °F 29.9 in NE 9 mph 17.5 mph 46.2% 0 in
12:59 90 °F 67.6 °F 29.9 in NE 9.7 mph 14 mph 47.9% 0 in
13:04 89.8 °F 67.3 °F 29.9 in NE 8.9 mph 17.5 mph 47.7% 0 in
13:09 89.8 °F 67.5 °F 29.9 in ENE 8.7 mph 17.3 mph 47.8% 0 in
13:14 90.1 °F 67.1 °F 29.9 in Este 9.1 mph 16.3 mph 46.9% 0 in
13:19 90.3 °F 67.6 °F 29.9 in ENE 9.2 mph 14 mph 47.4% 0 in
13:24 90.5 °F 68.2 °F 29.9 in NE 8 mph 18.1 mph 48% 0 in
13:29 90.3 °F 67.3 °F 29.9 in NE 7.4 mph 18.4 mph 46.8% 0 in
13:34 90.3 °F 67.8 °F 29.9 in NE 9 mph 19.2 mph 47.6% 0 in
13:39 90.3 °F 67.5 °F 29.9 in NE 9.7 mph 19.6 mph 47.2% 0 in
13:44 90.7 °F 67.1 °F 29.9 in NE 9.3 mph 16.1 mph 46% 0 in
13:49 91 °F 66.4 °F 29.9 in ENE 9.2 mph 15 mph 44.3% 0 in
13:54 91.2 °F 65.5 °F 29.9 in ENE 8.1 mph 15 mph 42.8% 0 in
13:59 91 °F 66.6 °F 29.9 in NE 7.6 mph 18.4 mph 44.6% 0 in
14:04 91 °F 65.7 °F 29.9 in ENE 8.4 mph 18.4 mph 43.5% 0 in
14:09 91 °F 65.5 °F 29.9 in Este 8.7 mph 15.2 mph 42.9% 0 in
14:14 91.4 °F 66.9 °F 29.9 in ENE 8.6 mph 17.3 mph 44.8% 0 in
14:19 91.2 °F 66.7 °F 29.9 in NE 8.5 mph 16.3 mph 44.8% 0 in
14:24 91 °F 66.9 °F 29.9 in NE 8.5 mph 16.1 mph 45.3% 0 in
14:29 91 °F 65.5 °F 29.9 in NE 8.5 mph 15 mph 42.9% 0 in
14:34 91.2 °F 66.4 °F 29.9 in ENE 7.8 mph 16.1 mph 44.1% 0 in
14:39 91.2 °F 66.7 °F 29.9 in NE 7.6 mph 14.5 mph 44.8% 0 in
14:44 91.4 °F 65.1 °F 29.9 in ENE 8.2 mph 15 mph 42.1% 0 in
14:49 91.8 °F 64.4 °F 29.9 in ENE 8.5 mph 14 mph 40.6% 0 in
14:54 91.9 °F 64.8 °F 29.9 in Este 7.8 mph 11.8 mph 41% 0 in
14:59 91.9 °F 64.4 °F 29.9 in NE 7.6 mph 16.3 mph 40.2% 0 in
15:04 92.1 °F 65.1 °F 29.9 in ENE 8 mph 13.8 mph 41.1% 0 in
15:09 92.3 °F 65.3 °F 29.9 in Este 8.1 mph 12.7 mph 41.2% 0 in
15:14 92.7 °F 65.5 °F 29.9 in ENE 6.9 mph 12.7 mph 41% 0 in
15:19 92.8 °F 64.6 °F 29.9 in Este 6.4 mph 18.4 mph 39.4% 0 in
15:24 92.5 °F 63.9 °F 29.9 in ENE 7.3 mph 19.7 mph 38.9% 0 in
15:29 91.9 °F 64.9 °F 29.9 in NE 7.6 mph 19.6 mph 41.2% 0 in
15:34 91.6 °F 65.8 °F 29.9 in NE 9.3 mph 21.3 mph 42.9% 0 in
15:39 91.6 °F 64.4 °F 29.9 in NE 10 mph 20.7 mph 40.9% 0 in
15:44 91.8 °F 65.7 °F 29.9 in NE 9.1 mph 18.1 mph 42.5% 0 in
15:49 91.8 °F 66 °F 29.9 in NE 8.7 mph 18.4 mph 43% 0 in
15:54 91.6 °F 65.8 °F 29.9 in NE 9.1 mph 18.1 mph 42.8% 0 in
15:59 91.4 °F 64.8 °F 29.9 in NE 9.2 mph 18.4 mph 41.6% 0 in
16:04 91.6 °F 65.3 °F 29.9 in NE 9.8 mph 18.4 mph 42.1% 0 in
16:09 91.4 °F 65.1 °F 29.9 in NE 10 mph 16.3 mph 42% 0 in
16:14 91.8 °F 64.8 °F 29.9 in NE 9.4 mph 17.5 mph 41.1% 0 in
16:19 91.6 °F 64.4 °F 29.9 in NNE 9.2 mph 15 mph 40.7% 0 in
16:24 91.9 °F 64.2 °F 29.9 in NE 9.2 mph 16.1 mph 40.2% 0 in
16:29 91.9 °F 64.9 °F 29.9 in ENE 9.2 mph 15.2 mph 41% 0 in
16:34 92.1 °F 65.1 °F 29.9 in NE 8.7 mph 15 mph 41.1% 0 in
16:39 92.1 °F 64.2 °F 29.9 in NE 8.5 mph 18.4 mph 39.9% 0 in
16:44 91.9 °F 64.8 °F 29.9 in NE 8.6 mph 18.4 mph 40.8% 0 in
16:49 91.8 °F 65.3 °F 29.9 in ENE 8.7 mph 17.3 mph 41.6% 0 in
16:54 91.9 °F 65.5 °F 29.9 in ENE 9.1 mph 15.2 mph 42% 0 in
16:59 91.8 °F 65.3 °F 29.9 in NE 9.2 mph 18.4 mph 41.8% 0 in
17:04 91.6 °F 65.3 °F 29.9 in NE 9.6 mph 18.4 mph 42.1% 0 in
17:09 91.6 °F 65.8 °F 29.9 in NE 9.7 mph 20.1 mph 43% 0 in
17:14 91.6 °F 65.3 °F 29.9 in ENE 9.4 mph 20.7 mph 42.1% 0 in
17:19 91.8 °F 64.9 °F 29.9 in NE 9.2 mph 15.2 mph 41.4% 0 in
17:24 91.8 °F 64.2 °F 29.9 in NE 8.7 mph 16.3 mph 40.4% 0 in
17:29 91.8 °F 63.1 °F 29.9 in NE 8.5 mph 17.3 mph 38.8% 0 in
17:34 91.8 °F 62.4 °F 29.9 in NE 8.6 mph 19 mph 38% 0 in
17:39 91.9 °F 63 °F 29.9 in NE 8.7 mph 15 mph 38.4% 0 in
17:44 91.9 °F 64 °F 29.9 in NE 8.6 mph 12.7 mph 39.8% 0 in
17:49 92.1 °F 61.7 °F 29.9 in NE 8.5 mph 15 mph 36.6% 0 in
17:54 92.1 °F 61.3 °F 29.9 in NE 8.2 mph 14 mph 36.1% 0 in
17:59 91.9 °F 62.6 °F 29.9 in NE 8.1 mph 16.1 mph 37.9% 0 in
18:04 91.6 °F 61.5 °F 29.9 in NE 8.9 mph 16.1 mph 36.9% 0 in
18:09 91.8 °F 61.7 °F 29.9 in NE 9.2 mph 16.3 mph 36.8% 0 in
18:14 91.8 °F 59.7 °F 29.9 in NE 8.1 mph 14 mph 34.4% 0 in
18:19 91.9 °F 60.8 °F 29.9 in ENE 7.6 mph 16.3 mph 35.5% 0 in
18:24 91.9 °F 59.9 °F 29.9 in NE 8.3 mph 16.3 mph 34.5% 0 in
18:29 91.9 °F 58.8 °F 29.9 in NE 8.5 mph 15 mph 33.1% 0 in
18:34 91.9 °F 59.5 °F 29.9 in NE 8.5 mph 15 mph 34% 0 in
18:39 91.8 °F 60.6 °F 29.9 in NE 8.5 mph 15 mph 35.5% 0 in
18:44 91.9 °F 60.1 °F 29.9 in ENE 7.9 mph 12.7 mph 34.6% 0 in
18:49 91.9 °F 61.5 °F 29.9 in NE 7.6 mph 11.2 mph 36.3% 0 in
18:54 91.9 °F 62.8 °F 29.9 in NE 6.4 mph 13.8 mph 38% 0 in
18:59 91.8 °F 63.3 °F 29.9 in ENE 5.9 mph 13.8 mph 38.9% 0 in
19:04 91.6 °F 62.8 °F 29.9 in ENE 6.2 mph 11.8 mph 38.4% 0 in
19:09 91.6 °F 62.8 °F 29.9 in NE 6.2 mph 13 mph 38.8% 0 in
19:14 91 °F 63.7 °F 29.9 in NE 6.3 mph 14 mph 40.4% 0 in
19:19 90.9 °F 63.5 °F 29.9 in ENE 6.4 mph 14 mph 40.6% 0 in
19:24 90.7 °F 63.3 °F 29.9 in NE 7.2 mph 12.7 mph 40.5% 0 in
19:29 90.7 °F 65.8 °F 29.9 in NE 7.6 mph 13.8 mph 44% 0 in
19:34 90.5 °F 66.7 °F 29.9 in NE 6.6 mph 11.8 mph 45.8% 0 in
19:39 90.1 °F 67.1 °F 29.9 in NE 6.2 mph 12.7 mph 46.9% 0 in
19:44 89.8 °F 67.3 °F 29.9 in NE 6.7 mph 12.7 mph 47.6% 0 in
19:49 89.6 °F 66.6 °F 29.9 in NE 6.9 mph 13 mph 47% 0 in
19:54 89.2 °F 67.3 °F 29.9 in NE 7.4 mph 14 mph 48.4% 0 in
19:59 89.1 °F 67.5 °F 29.9 in NE 7.6 mph 11.8 mph 49.3% 0 in
20:04 88.7 °F 68 °F 29.9 in NE 7.5 mph 13.8 mph 50.5% 0 in
20:09 88.3 °F 68.5 °F 29.9 in NE 7.4 mph 13 mph 51.9% 0 in
20:14 88.2 °F 68.4 °F 29.9 in NE 7.9 mph 12.7 mph 52.4% 0 in
20:19 87.8 °F 68.7 °F 29.9 in NE 8.1 mph 11.8 mph 53.5% 0 in
20:24 87.4 °F 68.9 °F 29.9 in NE 7.6 mph 10.4 mph 54.1% 0 in
20:29 87.3 °F 69.3 °F 29.9 in NE 7.4 mph 13.5 mph 55.2% 0 in
20:34 87.1 °F 69.4 °F 29.9 in NE 7.4 mph 14 mph 56.1% 0 in
20:39 86.7 °F 69.8 °F 29.9 in NE 7.4 mph 11.5 mph 57.2% 0 in
20:44 86.4 °F 70.2 °F 29.9 in NE 7.5 mph 11.5 mph 58.5% 0 in
20:49 86 °F 70.7 °F 29.9 in NE 7.6 mph 10.4 mph 60.1% 0 in
20:54 85.6 °F 70.9 °F 29.9 in NE 6.7 mph 13.8 mph 61.4% 0 in
20:59 85.3 °F 70.9 °F 29.9 in NE 6.4 mph 12.7 mph 62.3% 0 in
21:04 84.7 °F 70.9 °F 29.9 in NE 7.3 mph 12.7 mph 63.1% 0 in
21:09 84.6 °F 71.1 °F 29.9 in NE 7.6 mph 13 mph 64% 0 in
21:14 84.6 °F 71.4 °F 29.9 in NE 7.5 mph 12.7 mph 64.9% 0 in
21:19 84.4 °F 71.4 °F 29.9 in NE 7.4 mph 13 mph 65.3% 0 in
21:24 84 °F 71.6 °F 29.9 in NE 6.7 mph 11.5 mph 66.2% 0 in
21:29 83.8 °F 71.8 °F 29.9 in NE 6.4 mph 13 mph 67.2% 0 in
21:34 83.7 °F 72.1 °F 29.9 in NE 6.8 mph 12.7 mph 68.1% 0 in
21:39 83.7 °F 72.3 °F 29.9 in NE 6.9 mph 11.5 mph 69% 0 in
21:44 83.5 °F 72.5 °F 29.9 in NE 6.4 mph 11.8 mph 69.7% 0 in
21:49 83.1 °F 72.3 °F 29.9 in NE 6.2 mph 11.5 mph 70% 0 in
21:54 83.1 °F 72.5 °F 29.9 in NE 6.7 mph 12.3 mph 70.8% 0 in
21:59 82.9 °F 72.7 °F 29.9 in NE 6.9 mph 12.7 mph 71% 0 in
22:04 82.8 °F 72.9 °F 29.9 in NE 6.5 mph 9.2 mph 71.9% 0 in
22:09 82.8 °F 72.9 °F 29.9 in NE 6.4 mph 8.1 mph 72% 0 in
22:14 82.8 °F 72.9 °F 29.9 in NNE 5.2 mph 9.2 mph 72.3% 0 in
22:19 82.6 °F 73 °F 29.9 in NE 4.7 mph 9.2 mph 73% 0 in
22:24 82.4 °F 72.9 °F 29.9 in NE 5 mph 8.5 mph 73% 0 in
22:29 82.4 °F 72.9 °F 30 in NE 5.2 mph 5.8 mph 73% 0 in
22:34 82.2 °F 72.7 °F 30 in NE 3.7 mph 8.5 mph 73% 0 in
22:39 82 °F 72.7 °F 30 in NE 3.1 mph 8.1 mph 73.3% 0 in
22:44 82 °F 72.9 °F 30 in NE 4.2 mph 6.9 mph 74% 0 in
22:49 81.9 °F 72.9 °F 30 in NE 4.7 mph 8.1 mph 74% 0 in
22:54 81.7 °F 72.7 °F 30 in NE 5 mph 7.4 mph 74% 0 in
22:59 81.7 °F 72.7 °F 30 in NE 5.2 mph 6.9 mph 74% 0 in
23:04 81.7 °F 72.9 °F 30 in NE 4.5 mph 8.1 mph 74.8% 0 in
23:09 81.7 °F 73 °F 30 in NE 4.3 mph 6.9 mph 75% 0 in
23:14 81.7 °F 73 °F 30 in NE 4.1 mph 5.4 mph 75% 0 in
23:19 81.9 °F 73.2 °F 30 in NE 4 mph 5.9 mph 75% 0 in
23:24 81.7 °F 73 °F 30 in NE 3.4 mph 5.8 mph 75% 0 in
23:29 81.7 °F 73 °F 30 in ENE 3.1 mph 6.2 mph 75% 0 in
23:34 81.7 °F 73.2 °F 30 in ENE 3.5 mph 6.2 mph 75.7% 0 in
23:39 81.7 °F 73.4 °F 30 in Este 3.6 mph 5.8 mph 76% 0 in
23:44 81.5 °F 73.2 °F 30 in Este 3.2 mph 6.2 mph 76% 0 in
23:49 81.3 °F 73.2 °F 30 in Este 3.1 mph 5.9 mph 76.2% 0 in
23:54 81.3 °F 73.4 °F 30 in Este 3.7 mph 5.2 mph 77% 0 in
23:59 81.3 °F 73.4 °F 30 in Este 4 mph 5.8 mph 77% 0 in
Murcia-Puente Tocinos, Espa?a
Compliments of Weather Underground - 3 mb

La estación de MeteoMurcia.com, publica sus datos en los siguientes proyectos:

Weather Underground PWS IMURCIAP2 Meteoclimatic www.awekas.at

Web Analytics

Clicky